sensor_id;sensor_type;location;lat;lon;timestamp;P1;durP1;ratioP1;P2;durP2;ratioP2
68757;SDS011;55747;51.998;4.466;2023-03-29T00:00:20;6.43;;;3.30;;
68757;SDS011;55747;51.998;4.466;2023-03-29T00:02:46;5.25;;;3.00;;
68757;SDS011;55747;51.998;4.466;2023-03-29T00:05:13;6.63;;;3.45;;
68757;SDS011;55747;51.998;4.466;2023-03-29T00:07:39;7.05;;;3.95;;
68757;SDS011;55747;51.998;4.466;2023-03-29T00:10:06;6.85;;;3.75;;
68757;SDS011;55747;51.998;4.466;2023-03-29T00:12:33;8.50;;;3.92;;
68757;SDS011;55747;51.998;4.466;2023-03-29T00:15:00;5.38;;;3.70;;
68757;SDS011;55747;51.998;4.466;2023-03-29T00:17:26;7.43;;;3.75;;
68757;SDS011;55747;51.998;4.466;2023-03-29T00:19:51;5.90;;;3.85;;
68757;SDS011;55747;51.998;4.466;2023-03-29T00:22:17;6.85;;;4.00;;
68757;SDS011;55747;51.998;4.466;2023-03-29T00:24:42;8.00;;;4.00;;
68757;SDS011;55747;51.998;4.466;2023-03-29T00:27:07;7.75;;;3.60;;
68757;SDS011;55747;51.998;4.466;2023-03-29T00:29:32;8.70;;;3.47;;
68757;SDS011;55747;51.998;4.466;2023-03-29T00:31:58;9.15;;;3.65;;
68757;SDS011;55747;51.998;4.466;2023-03-29T00:34:24;6.32;;;3.67;;
68757;SDS011;55747;51.998;4.466;2023-03-29T00:36:51;5.35;;;3.28;;
68757;SDS011;55747;51.998;4.466;2023-03-29T00:39:20;5.90;;;3.50;;
68757;SDS011;55747;51.998;4.466;2023-03-29T00:41:46;6.95;;;3.60;;
68757;SDS011;55747;51.998;4.466;2023-03-29T00:47:16;8.35;;;3.85;;
68757;SDS011;55747;51.998;4.466;2023-03-29T00:49:44;7.53;;;3.65;;
68757;SDS011;55747;51.998;4.466;2023-03-29T00:52:10;6.13;;;3.33;;
68757;SDS011;55747;51.998;4.466;2023-03-29T00:54:39;8.02;;;3.95;;
68757;SDS011;55747;51.998;4.466;2023-03-29T00:57:07;7.28;;;3.40;;
68757;SDS011;55747;51.998;4.466;2023-03-29T00:59:34;8.25;;;3.67;;
68757;SDS011;55747;51.998;4.466;2023-03-29T01:02:02;6.78;;;3.58;;
68757;SDS011;55747;51.998;4.466;2023-03-29T01:04:35;7.55;;;3.70;;
68757;SDS011;55747;51.998;4.466;2023-03-29T01:07:15;6.68;;;3.72;;
68757;SDS011;55747;51.998;4.466;2023-03-29T01:09:51;6.28;;;3.80;;
68757;SDS011;55747;51.998;4.466;2023-03-29T01:12:34;7.25;;;3.85;;
68757;SDS011;55747;51.998;4.466;2023-03-29T01:15:08;5.25;;;3.50;;
68757;SDS011;55747;51.998;4.466;2023-03-29T01:17:36;8.27;;;4.22;;
68757;SDS011;55747;51.998;4.466;2023-03-29T01:20:45;8.15;;;3.60;;
68757;SDS011;55747;51.998;4.466;2023-03-29T01:23:13;8.55;;;4.10;;
68757;SDS011;55747;51.998;4.466;2023-03-29T01:28:45;9.35;;;3.50;;
68757;SDS011;55747;51.998;4.466;2023-03-29T01:31:20;6.95;;;3.85;;
68757;SDS011;55747;51.998;4.466;2023-03-29T01:33:50;10.13;;;4.03;;
68757;SDS011;55747;51.998;4.466;2023-03-29T01:39:35;8.32;;;3.90;;
68757;SDS011;55747;51.998;4.466;2023-03-29T01:42:13;6.40;;;3.85;;
68757;SDS011;55747;51.998;4.466;2023-03-29T01:44:53;7.80;;;4.00;;
68757;SDS011;55747;51.998;4.466;2023-03-29T01:50:16;6.85;;;4.00;;
68757;SDS011;55747;51.998;4.466;2023-03-29T01:55:30;6.72;;;3.80;;
68757;SDS011;55747;51.998;4.466;2023-03-29T01:57:58;5.97;;;3.88;;
68757;SDS011;55747;51.998;4.466;2023-03-29T02:00:26;6.75;;;4.15;;
68757;SDS011;55747;51.998;4.466;2023-03-29T02:02:54;7.10;;;3.90;;
68757;SDS011;55747;51.998;4.466;2023-03-29T02:05:24;7.30;;;4.20;;
68757;SDS011;55747;51.998;4.466;2023-03-29T02:07:52;6.78;;;3.72;;
68757;SDS011;55747;51.998;4.466;2023-03-29T02:10:19;9.23;;;4.05;;
68757;SDS011;55747;51.998;4.466;2023-03-29T02:12:46;8.88;;;4.40;;
68757;SDS011;55747;51.998;4.466;2023-03-29T02:15:13;8.80;;;3.97;;
68757;SDS011;55747;51.998;4.466;2023-03-29T02:17:40;9.90;;;4.85;;
68757;SDS011;55747;51.998;4.466;2023-03-29T02:22:44;9.23;;;4.22;;
68757;SDS011;55747;51.998;4.466;2023-03-29T02:27:36;7.22;;;4.35;;
68757;SDS011;55747;51.998;4.466;2023-03-29T02:30:04;7.90;;;4.30;;
68757;SDS011;55747;51.998;4.466;2023-03-29T02:32:40;11.05;;;4.50;;
68757;SDS011;55747;51.998;4.466;2023-03-29T02:35:13;9.57;;;4.53;;
68757;SDS011;55747;51.998;4.466;2023-03-29T02:37:45;8.20;;;4.70;;
68757;SDS011;55747;51.998;4.466;2023-03-29T02:40:13;9.38;;;5.13;;
68757;SDS011;55747;51.998;4.466;2023-03-29T02:42:40;8.20;;;4.55;;
68757;SDS011;55747;51.998;4.466;2023-03-29T02:45:09;8.07;;;4.68;;
68757;SDS011;55747;51.998;4.466;2023-03-29T02:47:40;7.97;;;4.85;;
68757;SDS011;55747;51.998;4.466;2023-03-29T02:52:37;10.25;;;4.97;;
68757;SDS011;55747;51.998;4.466;2023-03-29T02:55:07;7.60;;;4.60;;
68757;SDS011;55747;51.998;4.466;2023-03-29T02:57:38;8.95;;;4.30;;
68757;SDS011;55747;51.998;4.466;2023-03-29T03:00:05;12.27;;;5.10;;
68757;SDS011;55747;51.998;4.466;2023-03-29T03:02:34;9.23;;;4.57;;
68757;SDS011;55747;51.998;4.466;2023-03-29T03:05:00;7.40;;;4.90;;
68757;SDS011;55747;51.998;4.466;2023-03-29T03:07:25;7.90;;;4.75;;
68757;SDS011;55747;51.998;4.466;2023-03-29T03:09:52;9.35;;;4.90;;
68757;SDS011;55747;51.998;4.466;2023-03-29T03:12:18;10.93;;;5.40;;
68757;SDS011;55747;51.998;4.466;2023-03-29T03:14:43;11.05;;;5.07;;
68757;SDS011;55747;51.998;4.466;2023-03-29T03:17:08;9.18;;;5.70;;
68757;SDS011;55747;51.998;4.466;2023-03-29T03:19:33;7.93;;;5.07;;
68757;SDS011;55747;51.998;4.466;2023-03-29T03:22:00;7.55;;;5.25;;
68757;SDS011;55747;51.998;4.466;2023-03-29T03:24:26;8.82;;;4.80;;
68757;SDS011;55747;51.998;4.466;2023-03-29T03:26:52;8.75;;;5.07;;
68757;SDS011;55747;51.998;4.466;2023-03-29T03:29:17;8.45;;;5.20;;
68757;SDS011;55747;51.998;4.466;2023-03-29T03:31:42;8.23;;;5.13;;
68757;SDS011;55747;51.998;4.466;2023-03-29T03:34:08;9.27;;;5.38;;
68757;SDS011;55747;51.998;4.466;2023-03-29T03:36:34;9.18;;;4.72;;
68757;SDS011;55747;51.998;4.466;2023-03-29T03:39:00;9.60;;;4.97;;
68757;SDS011;55747;51.998;4.466;2023-03-29T03:41:29;11.20;;;4.85;;
68757;SDS011;55747;51.998;4.466;2023-03-29T03:43:55;9.75;;;5.13;;
68757;SDS011;55747;51.998;4.466;2023-03-29T03:46:20;7.82;;;4.63;;
68757;SDS011;55747;51.998;4.466;2023-03-29T03:48:46;8.07;;;5.20;;
68757;SDS011;55747;51.998;4.466;2023-03-29T03:51:11;7.20;;;4.65;;
68757;SDS011;55747;51.998;4.466;2023-03-29T03:53:38;10.05;;;5.50;;
68757;SDS011;55747;51.998;4.466;2023-03-29T03:56:03;9.27;;;5.30;;
68757;SDS011;55747;51.998;4.466;2023-03-29T03:58:33;9.23;;;4.82;;
68757;SDS011;55747;51.998;4.466;2023-03-29T04:01:00;7.40;;;5.03;;
68757;SDS011;55747;51.998;4.466;2023-03-29T04:03:25;11.18;;;6.10;;
68757;SDS011;55747;51.998;4.466;2023-03-29T04:05:51;11.38;;;5.60;;
68757;SDS011;55747;51.998;4.466;2023-03-29T04:08:17;9.65;;;4.97;;
68757;SDS011;55747;51.998;4.466;2023-03-29T04:10:49;11.65;;;5.20;;
68757;SDS011;55747;51.998;4.466;2023-03-29T04:13:16;8.27;;;5.18;;
68757;SDS011;55747;51.998;4.466;2023-03-29T04:15:42;9.15;;;5.43;;
68757;SDS011;55747;51.998;4.466;2023-03-29T04:18:10;13.32;;;5.85;;
68757;SDS011;55747;51.998;4.466;2023-03-29T04:20:36;8.43;;;5.82;;
68757;SDS011;55747;51.998;4.466;2023-03-29T04:23:01;9.68;;;5.85;;
68757;SDS011;55747;51.998;4.466;2023-03-29T04:25:27;8.65;;;5.47;;
68757;SDS011;55747;51.998;4.466;2023-03-29T04:27:52;9.35;;;5.18;;
68757;SDS011;55747;51.998;4.466;2023-03-29T04:30:18;9.57;;;5.47;;
68757;SDS011;55747;51.998;4.466;2023-03-29T04:32:43;9.07;;;5.70;;
68757;SDS011;55747;51.998;4.466;2023-03-29T04:35:08;9.73;;;5.78;;
68757;SDS011;55747;51.998;4.466;2023-03-29T04:37:34;11.40;;;6.10;;
68757;SDS011;55747;51.998;4.466;2023-03-29T04:39:59;10.18;;;6.30;;
68757;SDS011;55747;51.998;4.466;2023-03-29T04:42:25;9.93;;;6.07;;
68757;SDS011;55747;51.998;4.466;2023-03-29T04:44:51;8.68;;;5.60;;
68757;SDS011;55747;51.998;4.466;2023-03-29T04:47:17;12.15;;;6.30;;
68757;SDS011;55747;51.998;4.466;2023-03-29T04:49:43;11.27;;;6.30;;
68757;SDS011;55747;51.998;4.466;2023-03-29T04:52:09;11.63;;;6.55;;
68757;SDS011;55747;51.998;4.466;2023-03-29T04:54:34;10.95;;;5.78;;
68757;SDS011;55747;51.998;4.466;2023-03-29T04:57:01;8.70;;;6.00;;
68757;SDS011;55747;51.998;4.466;2023-03-29T04:59:27;14.13;;;6.65;;
68757;SDS011;55747;51.998;4.466;2023-03-29T05:01:52;10.35;;;6.47;;
68757;SDS011;55747;51.998;4.466;2023-03-29T05:04:18;10.02;;;6.88;;
68757;SDS011;55747;51.998;4.466;2023-03-29T05:06:43;11.52;;;6.78;;
68757;SDS011;55747;51.998;4.466;2023-03-29T05:09:09;10.43;;;6.57;;
68757;SDS011;55747;51.998;4.466;2023-03-29T05:11:34;10.48;;;6.30;;
68757;SDS011;55747;51.998;4.466;2023-03-29T05:14:00;9.93;;;6.00;;
68757;SDS011;55747;51.998;4.466;2023-03-29T05:16:30;11.68;;;6.03;;
68757;SDS011;55747;51.998;4.466;2023-03-29T05:18:56;12.27;;;6.38;;
68757;SDS011;55747;51.998;4.466;2023-03-29T05:21:22;9.15;;;5.72;;
68757;SDS011;55747;51.998;4.466;2023-03-29T05:23:48;15.05;;;6.32;;
68757;SDS011;55747;51.998;4.466;2023-03-29T05:26:13;11.25;;;6.47;;
68757;SDS011;55747;51.998;4.466;2023-03-29T05:28:39;12.60;;;7.00;;
68757;SDS011;55747;51.998;4.466;2023-03-29T05:31:05;11.43;;;6.78;;
68757;SDS011;55747;51.998;4.466;2023-03-29T05:33:31;11.88;;;6.55;;
68757;SDS011;55747;51.998;4.466;2023-03-29T05:36:01;10.88;;;6.00;;
68757;SDS011;55747;51.998;4.466;2023-03-29T05:38:40;12.90;;;6.75;;
68757;SDS011;55747;51.998;4.466;2023-03-29T05:41:06;14.95;;;6.85;;
68757;SDS011;55747;51.998;4.466;2023-03-29T05:43:32;15.45;;;6.63;;
68757;SDS011;55747;51.998;4.466;2023-03-29T05:45:58;12.18;;;6.78;;
68757;SDS011;55747;51.998;4.466;2023-03-29T05:48:24;17.33;;;6.78;;
68757;SDS011;55747;51.998;4.466;2023-03-29T05:50:50;14.30;;;6.38;;
68757;SDS011;55747;51.998;4.466;2023-03-29T05:53:19;11.32;;;6.80;;
68757;SDS011;55747;51.998;4.466;2023-03-29T05:55:46;12.18;;;6.43;;
68757;SDS011;55747;51.998;4.466;2023-03-29T05:58:12;11.32;;;6.53;;
68757;SDS011;55747;51.998;4.466;2023-03-29T06:00:38;11.23;;;6.82;;
68757;SDS011;55747;51.998;4.466;2023-03-29T06:03:04;10.75;;;6.35;;
68757;SDS011;55747;51.998;4.466;2023-03-29T06:05:32;12.60;;;6.90;;
68757;SDS011;55747;51.998;4.466;2023-03-29T06:07:58;10.05;;;6.47;;
68757;SDS011;55747;51.998;4.466;2023-03-29T06:10:23;12.02;;;6.70;;
68757;SDS011;55747;51.998;4.466;2023-03-29T06:12:48;12.13;;;6.50;;
68757;SDS011;55747;51.998;4.466;2023-03-29T06:15:14;11.02;;;7.00;;
68757;SDS011;55747;51.998;4.466;2023-03-29T06:17:41;12.27;;;6.93;;
68757;SDS011;55747;51.998;4.466;2023-03-29T06:20:08;14.98;;;7.95;;
68757;SDS011;55747;51.998;4.466;2023-03-29T06:22:36;11.80;;;7.45;;
68757;SDS011;55747;51.998;4.466;2023-03-29T06:25:02;13.52;;;7.22;;
68757;SDS011;55747;51.998;4.466;2023-03-29T06:27:28;14.80;;;7.65;;
68757;SDS011;55747;51.998;4.466;2023-03-29T06:29:54;12.53;;;7.70;;
68757;SDS011;55747;51.998;4.466;2023-03-29T06:32:19;13.15;;;7.75;;
68757;SDS011;55747;51.998;4.466;2023-03-29T06:34:44;13.25;;;7.68;;
68757;SDS011;55747;51.998;4.466;2023-03-29T06:37:10;21.63;;;8.50;;
68757;SDS011;55747;51.998;4.466;2023-03-29T06:39:38;19.98;;;8.63;;
68757;SDS011;55747;51.998;4.466;2023-03-29T06:42:05;17.75;;;8.00;;
68757;SDS011;55747;51.998;4.466;2023-03-29T06:44:30;16.48;;;8.63;;
68757;SDS011;55747;51.998;4.466;2023-03-29T06:46:56;18.67;;;8.40;;
68757;SDS011;55747;51.998;4.466;2023-03-29T06:49:21;15.10;;;8.23;;
68757;SDS011;55747;51.998;4.466;2023-03-29T06:51:47;20.27;;;8.65;;
68757;SDS011;55747;51.998;4.466;2023-03-29T06:54:12;17.05;;;8.20;;
68757;SDS011;55747;51.998;4.466;2023-03-29T06:56:38;17.65;;;8.75;;
68757;SDS011;55747;51.998;4.466;2023-03-29T06:59:04;19.20;;;8.65;;
68757;SDS011;55747;51.998;4.466;2023-03-29T07:01:29;16.48;;;8.18;;
68757;SDS011;55747;51.998;4.466;2023-03-29T07:03:54;14.20;;;8.13;;
68757;SDS011;55747;51.998;4.466;2023-03-29T07:06:21;18.55;;;8.63;;
68757;SDS011;55747;51.998;4.466;2023-03-29T07:08:47;18.13;;;8.93;;
68757;SDS011;55747;51.998;4.466;2023-03-29T07:11:16;20.75;;;9.40;;
68757;SDS011;55747;51.998;4.466;2023-03-29T07:13:42;16.83;;;8.23;;
68757;SDS011;55747;51.998;4.466;2023-03-29T07:16:09;17.70;;;8.52;;
68757;SDS011;55747;51.998;4.466;2023-03-29T07:18:38;18.05;;;8.45;;
68757;SDS011;55747;51.998;4.466;2023-03-29T07:21:06;17.02;;;8.85;;
68757;SDS011;55747;51.998;4.466;2023-03-29T07:23:32;17.20;;;9.20;;
68757;SDS011;55747;51.998;4.466;2023-03-29T07:25:58;19.13;;;9.40;;
68757;SDS011;55747;51.998;4.466;2023-03-29T07:28:24;19.85;;;9.38;;
68757;SDS011;55747;51.998;4.466;2023-03-29T07:30:49;17.00;;;9.20;;
68757;SDS011;55747;51.998;4.466;2023-03-29T07:33:15;17.50;;;9.23;;
68757;SDS011;55747;51.998;4.466;2023-03-29T07:35:40;19.02;;;9.38;;
68757;SDS011;55747;51.998;4.466;2023-03-29T07:38:07;20.80;;;10.15;;
68757;SDS011;55747;51.998;4.466;2023-03-29T07:40:33;15.70;;;9.40;;
68757;SDS011;55747;51.998;4.466;2023-03-29T07:42:58;17.30;;;9.93;;
68757;SDS011;55747;51.998;4.466;2023-03-29T07:45:24;20.95;;;10.90;;
68757;SDS011;55747;51.998;4.466;2023-03-29T07:47:55;18.08;;;10.48;;
68757;SDS011;55747;51.998;4.466;2023-03-29T07:50:22;21.67;;;10.63;;
68757;SDS011;55747;51.998;4.466;2023-03-29T07:52:47;28.00;;;11.48;;
68757;SDS011;55747;51.998;4.466;2023-03-29T07:55:13;30.73;;;11.43;;
68757;SDS011;55747;51.998;4.466;2023-03-29T07:57:39;20.33;;;10.77;;
68757;SDS011;55747;51.998;4.466;2023-03-29T08:00:05;22.42;;;10.60;;
68757;SDS011;55747;51.998;4.466;2023-03-29T08:02:43;23.98;;;11.20;;
68757;SDS011;55747;51.998;4.466;2023-03-29T08:05:10;22.65;;;11.45;;
68757;SDS011;55747;51.998;4.466;2023-03-29T08:07:39;22.48;;;11.73;;
68757;SDS011;55747;51.998;4.466;2023-03-29T08:10:15;26.63;;;11.98;;
68757;SDS011;55747;51.998;4.466;2023-03-29T08:12:45;27.05;;;12.05;;
68757;SDS011;55747;51.998;4.466;2023-03-29T08:15:11;26.67;;;12.57;;
68757;SDS011;55747;51.998;4.466;2023-03-29T08:17:37;30.65;;;13.00;;
68757;SDS011;55747;51.998;4.466;2023-03-29T08:20:03;30.40;;;14.30;;
68757;SDS011;55747;51.998;4.466;2023-03-29T08:22:31;27.45;;;13.77;;
68757;SDS011;55747;51.998;4.466;2023-03-29T08:24:57;25.52;;;12.90;;
68757;SDS011;55747;51.998;4.466;2023-03-29T08:27:23;25.80;;;13.15;;
68757;SDS011;55747;51.998;4.466;2023-03-29T08:29:49;26.98;;;13.80;;
68757;SDS011;55747;51.998;4.466;2023-03-29T08:32:14;25.83;;;12.68;;
68757;SDS011;55747;51.998;4.466;2023-03-29T08:34:40;28.40;;;13.43;;
68757;SDS011;55747;51.998;4.466;2023-03-29T08:37:05;25.85;;;13.48;;
68757;SDS011;55747;51.998;4.466;2023-03-29T08:39:32;27.48;;;14.02;;
68757;SDS011;55747;51.998;4.466;2023-03-29T08:44:57;28.55;;;14.05;;
68757;SDS011;55747;51.998;4.466;2023-03-29T08:50:36;26.13;;;12.70;;
68757;SDS011;55747;51.998;4.466;2023-03-29T08:53:11;24.17;;;12.85;;
68757;SDS011;55747;51.998;4.466;2023-03-29T08:55:41;23.80;;;12.45;;
68757;SDS011;55747;51.998;4.466;2023-03-29T08:58:19;25.23;;;13.98;;
68757;SDS011;55747;51.998;4.466;2023-03-29T09:00:54;22.10;;;13.20;;
68757;SDS011;55747;51.998;4.466;2023-03-29T09:03:22;27.92;;;14.63;;
68757;SDS011;55747;51.998;4.466;2023-03-29T09:06:03;23.02;;;14.70;;
68757;SDS011;55747;51.998;4.466;2023-03-29T09:09:08;28.00;;;15.45;;
68757;SDS011;55747;51.998;4.466;2023-03-29T09:11:44;26.63;;;15.93;;
68757;SDS011;55747;51.998;4.466;2023-03-29T09:14:29;24.50;;;14.85;;
68757;SDS011;55747;51.998;4.466;2023-03-29T09:17:24;24.38;;;15.38;;
68757;SDS011;55747;51.998;4.466;2023-03-29T09:25:51;26.65;;;15.95;;
68757;SDS011;55747;51.998;4.466;2023-03-29T09:28:35;30.35;;;17.42;;
68757;SDS011;55747;51.998;4.466;2023-03-29T09:31:05;28.90;;;16.70;;
68757;SDS011;55747;51.998;4.466;2023-03-29T09:33:45;26.77;;;15.52;;
68757;SDS011;55747;51.998;4.466;2023-03-29T09:39:08;27.67;;;15.35;;
68757;SDS011;55747;51.998;4.466;2023-03-29T09:41:39;27.95;;;14.98;;
68757;SDS011;55747;51.998;4.466;2023-03-29T09:44:24;27.13;;;15.55;;
68757;SDS011;55747;51.998;4.466;2023-03-29T09:46:59;23.27;;;15.80;;
68757;SDS011;55747;51.998;4.466;2023-03-29T09:49:40;23.05;;;15.38;;
68757;SDS011;55747;51.998;4.466;2023-03-29T09:52:11;24.65;;;16.38;;
68757;SDS011;55747;51.998;4.466;2023-03-29T09:54:39;23.42;;;16.40;;
68757;SDS011;55747;51.998;4.466;2023-03-29T09:57:05;25.55;;;17.73;;
68757;SDS011;55747;51.998;4.466;2023-03-29T09:59:30;25.25;;;18.13;;
68757;SDS011;55747;51.998;4.466;2023-03-29T10:02:09;26.00;;;18.35;;
68757;SDS011;55747;51.998;4.466;2023-03-29T10:04:37;27.00;;;18.75;;
68757;SDS011;55747;51.998;4.466;2023-03-29T10:07:03;25.77;;;18.77;;
68757;SDS011;55747;51.998;4.466;2023-03-29T10:09:30;27.25;;;19.42;;
68757;SDS011;55747;51.998;4.466;2023-03-29T10:11:56;26.83;;;20.02;;
68757;SDS011;55747;51.998;4.466;2023-03-29T10:17:10;29.63;;;21.50;;
68757;SDS011;55747;51.998;4.466;2023-03-29T10:19:45;28.60;;;20.85;;
68757;SDS011;55747;51.998;4.466;2023-03-29T10:22:15;29.17;;;21.67;;
68757;SDS011;55747;51.998;4.466;2023-03-29T10:24:50;36.38;;;25.20;;
68757;SDS011;55747;51.998;4.466;2023-03-29T10:27:21;37.35;;;27.73;;
68757;SDS011;55747;51.998;4.466;2023-03-29T10:34:46;40.22;;;25.83;;
68757;SDS011;55747;51.998;4.466;2023-03-29T10:37:13;36.75;;;24.17;;
68757;SDS011;55747;51.998;4.466;2023-03-29T10:39:43;32.50;;;22.27;;
68757;SDS011;55747;51.998;4.466;2023-03-29T10:42:10;36.40;;;26.00;;
68757;SDS011;55747;51.998;4.466;2023-03-29T10:44:38;38.10;;;26.02;;
68757;SDS011;55747;51.998;4.466;2023-03-29T10:47:11;42.92;;;25.27;;
68757;SDS011;55747;51.998;4.466;2023-03-29T10:49:41;34.50;;;23.17;;
68757;SDS011;55747;51.998;4.466;2023-03-29T10:52:11;29.92;;;21.35;;
68757;SDS011;55747;51.998;4.466;2023-03-29T10:54:37;31.25;;;20.38;;
68757;SDS011;55747;51.998;4.466;2023-03-29T10:57:03;28.90;;;20.33;;
68757;SDS011;55747;51.998;4.466;2023-03-29T11:21:24;27.65;;;19.50;;
68757;SDS011;55747;51.998;4.466;2023-03-29T11:29:11;29.20;;;19.67;;
68757;SDS011;55747;51.998;4.466;2023-03-29T11:34:29;27.58;;;16.45;;
68757;SDS011;55747;51.998;4.466;2023-03-29T11:39:48;26.30;;;18.55;;
68757;SDS011;55747;51.998;4.466;2023-03-29T11:42:17;20.97;;;15.03;;
68757;SDS011;55747;51.998;4.466;2023-03-29T11:44:46;20.98;;;14.80;;
68757;SDS011;55747;51.998;4.466;2023-03-29T11:47:16;22.83;;;14.07;;
68757;SDS011;55747;51.998;4.466;2023-03-29T11:52:35;21.77;;;13.32;;
68757;SDS011;55747;51.998;4.466;2023-03-29T11:55:12;22.83;;;13.05;;
68757;SDS011;55747;51.998;4.466;2023-03-29T11:57:43;23.30;;;13.63;;
68757;SDS011;55747;51.998;4.466;2023-03-29T12:00:37;19.80;;;13.63;;
68757;SDS011;55747;51.998;4.466;2023-03-29T12:06:04;24.33;;;15.13;;
68757;SDS011;55747;51.998;4.466;2023-03-29T12:08:36;23.65;;;16.38;;
68757;SDS011;55747;51.998;4.466;2023-03-29T12:11:10;27.10;;;18.42;;
68757;SDS011;55747;51.998;4.466;2023-03-29T12:13:48;23.45;;;16.35;;
68757;SDS011;55747;51.998;4.466;2023-03-29T12:16:29;20.80;;;13.13;;
68757;SDS011;55747;51.998;4.466;2023-03-29T12:21:45;20.65;;;12.73;;
68757;SDS011;55747;51.998;4.466;2023-03-29T12:24:12;24.10;;;15.82;;
68757;SDS011;55747;51.998;4.466;2023-03-29T12:40:43;17.52;;;13.02;;
68757;SDS011;55747;51.998;4.466;2023-03-29T12:48:39;14.57;;;9.27;;
68757;SDS011;55747;51.998;4.466;2023-03-29T12:54:51;15.85;;;10.63;;
68757;SDS011;55747;51.998;4.466;2023-03-29T12:56:57;13.70;;;9.07;;
68757;SDS011;55747;51.998;4.466;2023-03-29T13:06:04;10.13;;;7.65;;
68757;SDS011;55747;51.998;4.466;2023-03-29T13:11:02;15.68;;;8.50;;
68757;SDS011;55747;51.998;4.466;2023-03-29T13:13:36;15.30;;;8.07;;
68757;SDS011;55747;51.998;4.466;2023-03-29T13:28:25;17.48;;;10.77;;
68757;SDS011;55747;51.998;4.466;2023-03-29T13:43:21;17.25;;;12.20;;
68757;SDS011;55747;51.998;4.466;2023-03-29T13:48:30;16.27;;;10.18;;
68757;SDS011;55747;51.998;4.466;2023-03-29T13:57:21;15.95;;;10.18;;
68757;SDS011;55747;51.998;4.466;2023-03-29T14:00:13;15.27;;;10.02;;
68757;SDS011;55747;51.998;4.466;2023-03-29T14:02:48;16.95;;;11.10;;
68757;SDS011;55747;51.998;4.466;2023-03-29T14:05:20;14.35;;;11.90;;
68757;SDS011;55747;51.998;4.466;2023-03-29T14:07:50;16.77;;;11.20;;
68757;SDS011;55747;51.998;4.466;2023-03-29T14:10:25;16.77;;;10.85;;
68757;SDS011;55747;51.998;4.466;2023-03-29T14:13:14;14.60;;;11.63;;
68757;SDS011;55747;51.998;4.466;2023-03-29T14:18:44;14.02;;;10.43;;
68757;SDS011;55747;51.998;4.466;2023-03-29T14:21:14;13.50;;;9.63;;
68757;SDS011;55747;51.998;4.466;2023-03-29T14:23:53;15.18;;;9.02;;
68757;SDS011;55747;51.998;4.466;2023-03-29T14:26:30;11.85;;;9.00;;
68757;SDS011;55747;51.998;4.466;2023-03-29T14:28:57;15.55;;;9.65;;
68757;SDS011;55747;51.998;4.466;2023-03-29T14:34:10;11.07;;;8.23;;
68757;SDS011;55747;51.998;4.466;2023-03-29T14:36:49;11.70;;;8.15;;
68757;SDS011;55747;51.998;4.466;2023-03-29T14:39:21;11.02;;;8.30;;
68757;SDS011;55747;51.998;4.466;2023-03-29T14:41:56;15.30;;;8.60;;
68757;SDS011;55747;51.998;4.466;2023-03-29T14:44:28;11.30;;;8.40;;
68757;SDS011;55747;51.998;4.466;2023-03-29T14:47:00;11.15;;;8.90;;
68757;SDS011;55747;51.998;4.466;2023-03-29T14:49:29;14.10;;;9.30;;
68757;SDS011;55747;51.998;4.466;2023-03-29T14:51:55;15.70;;;10.27;;
68757;SDS011;55747;51.998;4.466;2023-03-29T14:54:23;11.13;;;9.80;;
68757;SDS011;55747;51.998;4.466;2023-03-29T14:56:56;12.13;;;9.75;;
68757;SDS011;55747;51.998;4.466;2023-03-29T14:59:34;11.93;;;9.70;;
68757;SDS011;55747;51.998;4.466;2023-03-29T15:02:23;12.00;;;9.30;;
68757;SDS011;55747;51.998;4.466;2023-03-29T15:05:00;13.15;;;9.60;;
68757;SDS011;55747;51.998;4.466;2023-03-29T15:07:33;11.07;;;9.23;;
68757;SDS011;55747;51.998;4.466;2023-03-29T15:10:00;10.88;;;8.50;;
68757;SDS011;55747;51.998;4.466;2023-03-29T15:12:29;10.65;;;8.55;;
68757;SDS011;55747;51.998;4.466;2023-03-29T15:14:55;10.80;;;8.23;;
68757;SDS011;55747;51.998;4.466;2023-03-29T15:17:29;11.50;;;8.48;;
68757;SDS011;55747;51.998;4.466;2023-03-29T15:19:58;10.05;;;7.88;;
68757;SDS011;55747;51.998;4.466;2023-03-29T15:22:33;13.70;;;7.95;;
68757;SDS011;55747;51.998;4.466;2023-03-29T15:24:59;10.60;;;7.75;;
68757;SDS011;55747;51.998;4.466;2023-03-29T15:27:25;9.88;;;7.57;;
68757;SDS011;55747;51.998;4.466;2023-03-29T15:29:58;11.48;;;8.07;;
68757;SDS011;55747;51.998;4.466;2023-03-29T15:32:33;9.38;;;7.60;;
68757;SDS011;55747;51.998;4.466;2023-03-29T15:35:00;14.82;;;7.68;;
68757;SDS011;55747;51.998;4.466;2023-03-29T15:37:28;10.63;;;7.70;;
68757;SDS011;55747;51.998;4.466;2023-03-29T15:39:54;9.13;;;7.38;;
68757;SDS011;55747;51.998;4.466;2023-03-29T15:42:20;9.52;;;6.95;;
68757;SDS011;55747;51.998;4.466;2023-03-29T15:44:46;9.77;;;7.15;;
68757;SDS011;55747;51.998;4.466;2023-03-29T15:47:12;11.57;;;6.88;;
68757;SDS011;55747;51.998;4.466;2023-03-29T15:49:37;11.48;;;6.63;;
68757;SDS011;55747;51.998;4.466;2023-03-29T15:52:03;10.10;;;6.93;;
68757;SDS011;55747;51.998;4.466;2023-03-29T15:54:29;8.38;;;6.40;;
68757;SDS011;55747;51.998;4.466;2023-03-29T15:56:58;9.95;;;6.60;;
68757;SDS011;55747;51.998;4.466;2023-03-29T15:59:26;8.70;;;6.68;;
68757;SDS011;55747;51.998;4.466;2023-03-29T16:01:51;8.95;;;6.10;;
68757;SDS011;55747;51.998;4.466;2023-03-29T16:04:18;9.63;;;6.32;;
68757;SDS011;55747;51.998;4.466;2023-03-29T16:06:46;7.80;;;5.93;;
68757;SDS011;55747;51.998;4.466;2023-03-29T16:09:13;10.35;;;6.53;;
68757;SDS011;55747;51.998;4.466;2023-03-29T16:11:39;8.80;;;6.50;;
68757;SDS011;55747;51.998;4.466;2023-03-29T16:16:47;13.23;;;6.43;;
68757;SDS011;55747;51.998;4.466;2023-03-29T16:19:13;10.30;;;6.68;;
68757;SDS011;55747;51.998;4.466;2023-03-29T16:21:39;10.38;;;6.20;;
68757;SDS011;55747;51.998;4.466;2023-03-29T16:24:07;8.38;;;5.97;;
68757;SDS011;55747;51.998;4.466;2023-03-29T16:26:37;7.07;;;5.55;;
68757;SDS011;55747;51.998;4.466;2023-03-29T16:29:03;7.95;;;5.55;;
68757;SDS011;55747;51.998;4.466;2023-03-29T16:31:28;6.28;;;5.15;;
68757;SDS011;55747;51.998;4.466;2023-03-29T16:33:53;7.47;;;5.25;;
68757;SDS011;55747;51.998;4.466;2023-03-29T16:36:19;7.30;;;5.20;;
68757;SDS011;55747;51.998;4.466;2023-03-29T16:38:44;7.97;;;5.03;;
68757;SDS011;55747;51.998;4.466;2023-03-29T16:41:13;5.97;;;4.80;;
68757;SDS011;55747;51.998;4.466;2023-03-29T16:43:40;7.13;;;5.07;;
68757;SDS011;55747;51.998;4.466;2023-03-29T16:46:06;8.43;;;5.20;;
68757;SDS011;55747;51.998;4.466;2023-03-29T16:48:33;8.88;;;5.30;;
68757;SDS011;55747;51.998;4.466;2023-03-29T16:50:58;8.00;;;5.00;;
68757;SDS011;55747;51.998;4.466;2023-03-29T16:53:24;5.95;;;4.43;;
68757;SDS011;55747;51.998;4.466;2023-03-29T16:55:50;6.38;;;5.10;;
68757;SDS011;55747;51.998;4.466;2023-03-29T16:58:16;7.35;;;4.97;;
68757;SDS011;55747;51.998;4.466;2023-03-29T17:00:42;7.47;;;5.45;;
68757;SDS011;55747;51.998;4.466;2023-03-29T17:03:07;7.10;;;5.30;;
68757;SDS011;55747;51.998;4.466;2023-03-29T17:05:33;6.93;;;4.95;;
68757;SDS011;55747;51.998;4.466;2023-03-29T17:08:04;6.95;;;5.20;;
68757;SDS011;55747;51.998;4.466;2023-03-29T17:10:30;8.30;;;5.13;;
68757;SDS011;55747;51.998;4.466;2023-03-29T17:12:55;8.05;;;5.38;;
68757;SDS011;55747;51.998;4.466;2023-03-29T17:15:21;6.20;;;5.40;;
68757;SDS011;55747;51.998;4.466;2023-03-29T17:17:46;6.63;;;5.10;;
68757;SDS011;55747;51.998;4.466;2023-03-29T17:20:12;6.30;;;5.57;;
68757;SDS011;55747;51.998;4.466;2023-03-29T17:22:38;6.40;;;5.38;;
68757;SDS011;55747;51.998;4.466;2023-03-29T17:25:05;9.10;;;5.43;;